createdAt,value
2022-09-26T00:01:25.878Z,83.51
2022-09-26T00:03:56.136Z,83.17
2022-09-26T00:06:23.602Z,83.46
2022-09-26T00:08:50.889Z,83.75
2022-09-26T00:11:26.966Z,83.49
2022-09-26T00:13:56.580Z,83.40
2022-09-26T00:16:24.339Z,83.33
2022-09-26T00:18:52.602Z,83.82
2022-09-26T00:21:20.208Z,84.15
2022-09-26T00:23:47.738Z,84.23
2022-09-26T00:26:16.052Z,84.44
2022-09-26T00:28:42.865Z,84.62
2022-09-26T00:31:13.231Z,84.15
2022-09-26T00:33:40.155Z,83.79
2022-09-26T00:36:07.261Z,83.80
2022-09-26T00:38:34.564Z,83.61
2022-09-26T00:41:02.095Z,84.04
2022-09-26T00:43:44.008Z,83.97
2022-09-26T00:46:27.574Z,84.12
2022-09-26T00:49:16.115Z,83.65
2022-09-26T00:51:47.177Z,83.69
2022-09-26T00:54:16.892Z,83.31
2022-09-26T00:56:45.689Z,83.44
2022-09-26T00:59:29.580Z,84.09
2022-09-26T01:01:58.862Z,83.83
2022-09-26T01:04:31.510Z,83.99
2022-09-26T01:07:01.528Z,83.60
2022-09-26T01:09:29.320Z,83.58
2022-09-26T01:11:57.000Z,83.66
2022-09-26T01:14:25.038Z,83.10
2022-09-26T01:16:53.240Z,83.44
2022-09-26T01:19:32.112Z,83.48
2022-09-26T01:22:20.834Z,83.30
2022-09-26T01:25:12.428Z,82.99
2022-09-26T01:28:04.235Z,83.21
2022-09-26T01:30:44.322Z,82.91
2022-09-26T01:33:32.988Z,82.62
2022-09-26T01:36:11.720Z,82.69
2022-09-26T01:38:51.257Z,82.67
2022-09-26T01:41:44.405Z,82.18
2022-09-26T01:44:44.133Z,82.80
2022-09-26T01:47:23.999Z,82.48
2022-09-26T01:50:15.371Z,82.57
2022-09-26T01:52:56.300Z,82.50
2022-09-26T01:55:37.513Z,82.70
2022-09-26T01:58:23.966Z,83.09
2022-09-26T02:00:52.352Z,82.93
2022-09-26T02:03:26.010Z,82.87
2022-09-26T02:06:08.002Z,82.90
2022-09-26T02:08:42.089Z,83.34
2022-09-26T02:11:13.789Z,83.14
2022-09-26T02:13:59.014Z,82.83
2022-09-26T02:16:37.451Z,83.44
2022-09-26T02:19:27.665Z,83.83
2022-09-26T02:21:55.824Z,83.30
2022-09-26T02:24:23.612Z,83.31
2022-09-26T02:26:51.721Z,83.46
2022-09-26T02:29:21.449Z,83.77
2022-09-26T02:32:15.974Z,84.23
2022-09-26T02:34:45.842Z,84.22
2022-09-26T02:37:14.587Z,84.46
2022-09-26T02:39:43.685Z,84.00
2022-09-26T02:42:15.958Z,84.57
2022-09-26T02:45:08.961Z,84.22
2022-09-26T02:47:59.551Z,84.25
2022-09-26T02:51:03.200Z,84.40
2022-09-26T02:54:11.890Z,83.66
2022-09-26T02:57:01.528Z,83.47
2022-09-26T03:00:07.244Z,83.64
2022-09-26T03:02:45.798Z,83.66
2022-09-26T03:05:21.091Z,83.88
2022-09-26T03:07:51.654Z,83.77
2022-09-26T03:10:19.597Z,84.36
2022-09-26T03:12:49.401Z,84.13
2022-09-26T03:15:17.868Z,83.94
2022-09-26T03:17:49.894Z,83.68
2022-09-26T03:20:21.579Z,83.13
2022-09-26T03:22:50.396Z,83.56
2022-09-26T03:25:22.553Z,83.67
2022-09-26T03:27:57.207Z,83.86
2022-09-26T03:30:24.458Z,83.86
2022-09-26T03:33:11.398Z,83.46
2022-09-26T03:35:38.047Z,83.54
2022-09-26T03:38:04.703Z,83.75
2022-09-26T03:40:36.710Z,83.78
2022-09-26T03:43:24.426Z,84.26
2022-09-26T03:45:52.804Z,84.46
2022-09-26T03:48:24.245Z,83.65
2022-09-26T03:50:50.993Z,84.48
2022-09-26T03:53:17.697Z,84.29
2022-09-26T03:55:44.930Z,84.16
2022-09-26T03:58:11.689Z,84.19
2022-09-26T04:00:39.849Z,84.47
2022-09-26T04:03:07.372Z,84.22
2022-09-26T04:05:38.444Z,84.44
2022-09-26T04:08:06.162Z,84.14
2022-09-26T04:10:34.249Z,84.23
2022-09-26T04:13:01.201Z,84.32
2022-09-26T04:15:29.480Z,84.68
2022-09-26T04:18:05.381Z,84.90
2022-09-26T04:20:32.146Z,84.89
2022-09-26T04:23:00.398Z,85.18
2022-09-26T04:25:27.184Z,85.04
2022-09-26T04:27:53.847Z,84.79
2022-09-26T04:30:21.649Z,84.79
2022-09-26T04:32:54.121Z,85.53
2022-09-26T04:35:35.882Z,85.12
2022-09-26T04:38:03.164Z,85.31
2022-09-26T04:40:30.474Z,85.39
2022-09-26T04:43:06.761Z,85.48
2022-09-26T04:45:33.663Z,85.58
2022-09-26T04:48:01.631Z,85.28
2022-09-26T04:50:48.200Z,85.33
2022-09-26T04:53:14.961Z,85.35
2022-09-26T04:56:03.031Z,85.10
2022-09-26T04:58:31.790Z,85.26
2022-09-26T05:01:06.479Z,84.96
2022-09-26T05:03:50.766Z,84.82
2022-09-26T05:06:18.450Z,84.86
2022-09-26T05:08:48.574Z,84.88
2022-09-26T05:11:21.586Z,84.99
2022-09-26T05:13:53.552Z,85.37
2022-09-26T05:16:22.230Z,85.41
2022-09-26T05:18:52.867Z,85.24
2022-09-26T05:21:19.951Z,85.07
2022-09-26T05:24:05.389Z,85.35
2022-09-26T05:26:32.059Z,85.97
2022-09-26T05:29:06.815Z,85.93
2022-09-26T05:32:04.398Z,85.60
2022-09-26T05:34:36.449Z,85.94
2022-09-26T05:37:04.641Z,86.19
2022-09-26T05:39:50.981Z,86.67
2022-09-26T05:42:19.150Z,86.82
2022-09-26T05:44:45.788Z,86.48
2022-09-26T05:47:13.747Z,86.95
2022-09-26T05:49:40.424Z,87.05
2022-09-26T05:52:09.919Z,86.71
2022-09-26T05:54:36.988Z,86.58
2022-09-26T05:57:16.236Z,86.86
2022-09-26T05:59:52.259Z,86.90
2022-09-26T06:02:25.395Z,86.69
2022-09-26T06:05:09.314Z,86.39
2022-09-26T06:07:54.220Z,86.75
2022-09-26T06:10:40.248Z,86.85
2022-09-26T06:13:07.825Z,86.91
2022-09-26T06:15:52.824Z,86.65
2022-09-26T06:18:20.466Z,86.77
2022-09-26T06:20:47.193Z,86.51
2022-09-26T06:23:13.958Z,86.35
2022-09-26T06:25:43.357Z,85.91
2022-09-26T06:28:10.040Z,86.24
2022-09-26T06:30:37.023Z,86.44
2022-09-26T06:33:11.612Z,85.94
2022-09-26T06:36:10.009Z,86.51
2022-09-26T06:38:38.547Z,86.63
2022-09-26T06:41:09.441Z,86.79
2022-09-26T06:43:36.263Z,86.09
2022-09-26T06:46:11.446Z,85.57
2022-09-26T06:48:58.260Z,85.39
2022-09-26T06:52:00.740Z,85.48
2022-09-26T06:54:27.519Z,85.33
2022-09-26T06:56:54.354Z,85.29
2022-09-26T06:59:21.027Z,85.33
2022-09-26T07:01:54.332Z,85.26
2022-09-26T07:04:39.628Z,84.77
2022-09-26T07:07:30.400Z,85.11
2022-09-26T07:09:57.940Z,85.05
2022-09-26T07:12:47.192Z,85.10
2022-09-26T07:15:18.265Z,85.56
2022-09-26T07:17:48.100Z,85.78
2022-09-26T07:20:38.178Z,85.87
2022-09-26T07:23:23.926Z,85.50
2022-09-26T07:25:52.082Z,85.72
2022-09-26T07:28:19.215Z,85.66
2022-09-26T07:30:48.885Z,85.15
2022-09-26T07:33:26.189Z,85.33
2022-09-26T07:35:55.754Z,85.50
2022-09-26T07:38:22.629Z,85.49
2022-09-26T07:40:54.391Z,84.53
2022-09-26T07:43:30.810Z,84.56
2022-09-26T07:46:27.119Z,84.43
2022-09-26T07:49:14.710Z,84.01
2022-09-26T07:52:08.719Z,83.68
2022-09-26T07:55:14.209Z,83.82
2022-09-26T07:57:51.155Z,83.69
2022-09-26T08:00:31.501Z,83.68
2022-09-26T08:03:18.652Z,83.16
2022-09-26T08:05:45.478Z,82.98
2022-09-26T08:08:12.155Z,83.30
2022-09-26T08:11:03.506Z,83.10
2022-09-26T08:13:55.306Z,81.86
2022-09-26T08:16:47.859Z,81.79
2022-09-26T08:19:17.474Z,82.82
2022-09-26T08:21:44.967Z,81.99
2022-09-26T08:24:11.656Z,81.92
2022-09-26T08:26:55.789Z,81.81
2022-09-26T08:29:26.979Z,81.76
2022-09-26T08:31:55.038Z,81.65
2022-09-26T08:34:25.391Z,82.23
2022-09-26T08:37:11.685Z,81.61
2022-09-26T08:39:57.859Z,80.64
2022-09-26T08:43:15.742Z,80.62
2022-09-26T08:46:45.223Z,78.49
2022-09-26T08:49:40.078Z,78.62
2022-09-26T08:52:22.068Z,78.54
2022-09-26T08:54:51.331Z,77.21
2022-09-26T08:57:34.092Z,77.59
2022-09-26T09:00:10.142Z,77.47
2022-09-26T09:02:58.055Z,75.79
2022-09-26T09:05:35.645Z,75.59
2022-09-26T09:08:08.058Z,76.06
2022-09-26T09:11:08.702Z,74.26
2022-09-26T09:13:48.225Z,75.38
2022-09-26T09:16:51.696Z,75.98
2022-09-26T09:20:00.591Z,73.95
2022-09-26T09:23:17.833Z,72.34
2022-09-26T09:25:55.510Z,72.35
2022-09-26T09:28:38.934Z,72.81
2022-09-26T09:31:11.534Z,72.24
2022-09-26T09:34:04.076Z,70.85
2022-09-26T09:37:07.552Z,70.54
2022-09-26T09:40:22.436Z,70.98
2022-09-26T09:43:41.359Z,70.09
2022-09-26T09:46:28.907Z,70.89
2022-09-26T09:49:07.917Z,71.33
2022-09-26T09:52:02.784Z,70.61
2022-09-26T09:54:51.278Z,70.38
2022-09-26T09:57:36.680Z,70.23
2022-09-26T10:00:18.241Z,70.80
2022-09-26T10:03:37.884Z,68.35
2022-09-26T10:06:05.634Z,69.44
2022-09-26T10:08:41.814Z,69.56
2022-09-26T10:11:41.873Z,68.11
2022-09-26T10:14:34.225Z,61.55
2022-09-26T10:17:09.968Z,63.23
2022-09-26T10:19:52.329Z,60.79
2022-09-26T10:22:29.445Z,60.33
2022-09-26T10:25:08.561Z,58.46
2022-09-26T10:27:38.256Z,59.10
2022-09-26T10:30:05.203Z,57.16
2022-09-26T10:32:45.722Z,57.03
2022-09-26T10:35:46.163Z,57.19
2022-09-26T10:38:22.069Z,58.08
2022-09-26T10:41:01.913Z,56.50
2022-09-26T10:43:37.972Z,55.71
2022-09-26T10:46:23.623Z,53.35
2022-09-26T10:49:15.894Z,54.32
2022-09-26T10:52:23.729Z,52.73
2022-09-26T10:55:12.308Z,52.53
2022-09-26T10:57:57.509Z,53.84
2022-09-26T11:00:37.947Z,52.17
2022-09-26T11:03:18.087Z,50.28
2022-09-26T11:06:03.552Z,51.54
2022-09-26T11:08:34.976Z,50.34
2022-09-26T11:11:31.433Z,51.03
2022-09-26T11:14:08.496Z,49.83
2022-09-26T11:16:56.113Z,49.21
2022-09-26T11:19:54.862Z,50.12
2022-09-26T11:22:41.549Z,48.83
2022-09-26T11:25:27.818Z,46.88
2022-09-26T11:28:13.187Z,45.83
2022-09-26T11:31:17.956Z,46.12
2022-09-26T11:33:51.111Z,46.14
2022-09-26T11:36:46.926Z,49.71
2022-09-26T11:39:23.138Z,47.72
2022-09-26T11:42:13.870Z,45.62
2022-09-26T11:44:44.121Z,46.27
2022-09-26T11:47:52.392Z,45.23
2022-09-26T11:50:40.189Z,43.69
2022-09-26T11:53:32.489Z,40.96
2022-09-26T11:56:25.123Z,43.40
2022-09-26T11:59:08.426Z,42.91
2022-09-26T12:01:55.951Z,42.94
2022-09-26T12:04:45.345Z,44.18
2022-09-26T12:07:43.673Z,42.57
2022-09-26T12:10:50.763Z,43.49
2022-09-26T12:13:35.315Z,44.09
2022-09-26T12:16:25.849Z,44.73
2022-09-26T12:18:58.540Z,45.86
2022-09-26T12:21:34.195Z,46.26
2022-09-26T12:24:16.343Z,46.17
2022-09-26T12:27:08.877Z,47.42
2022-09-26T12:29:59.378Z,47.62
2022-09-26T12:32:31.228Z,48.38
2022-09-26T12:35:37.600Z,47.43
2022-09-26T12:38:22.260Z,48.08
2022-09-26T12:41:38.461Z,48.92
2022-09-26T12:44:13.822Z,49.13
2022-09-26T12:46:51.777Z,47.84
2022-09-26T12:49:27.187Z,49.13
2022-09-26T12:51:59.170Z,48.66
2022-09-26T12:54:55.139Z,49.02
2022-09-26T12:57:57.283Z,47.73
2022-09-26T13:00:24.983Z,49.85
2022-09-26T13:03:21.246Z,49.06
2022-09-26T13:05:53.878Z,49.76
2022-09-26T13:08:36.858Z,49.56
2022-09-26T13:11:12.622Z,50.40
2022-09-26T13:13:46.065Z,49.69
2022-09-26T13:16:34.140Z,49.59
2022-09-26T13:19:15.398Z,50.08
2022-09-26T13:21:50.833Z,49.86
2022-09-26T13:24:26.290Z,50.79
2022-09-26T13:27:04.897Z,50.94
2022-09-26T13:29:36.578Z,51.39
2022-09-26T13:32:15.242Z,50.95
2022-09-26T13:35:07.810Z,50.42
2022-09-26T13:37:47.933Z,51.35
2022-09-26T13:40:33.152Z,50.92
2022-09-26T13:43:07.525Z,51.42
2022-09-26T13:45:59.060Z,51.52
2022-09-26T13:48:49.111Z,50.63
2022-09-26T13:51:24.771Z,51.20
2022-09-26T13:53:57.729Z,51.41
2022-09-26T13:56:35.027Z,51.19
2022-09-26T13:59:26.162Z,51.09
2022-09-26T14:02:19.840Z,52.29
2022-09-26T14:04:48.466Z,51.69
2022-09-26T14:07:41.221Z,52.12
2022-09-26T14:10:18.568Z,52.18
2022-09-26T14:13:13.341Z,51.78
2022-09-26T14:15:49.230Z,52.56
2022-09-26T14:18:32.598Z,51.83
2022-09-26T14:21:12.825Z,51.98
2022-09-26T14:23:47.667Z,51.87
2022-09-26T14:26:42.095Z,51.46
2022-09-26T14:29:30.395Z,51.41
2022-09-26T14:32:04.383Z,51.86
2022-09-26T14:34:34.106Z,52.43
2022-09-26T14:37:04.441Z,52.96
2022-09-26T14:39:42.095Z,52.29
2022-09-26T14:42:22.438Z,52.04
2022-09-26T14:45:13.572Z,52.63
2022-09-26T14:47:48.542Z,53.00
2022-09-26T14:50:20.464Z,53.18
2022-09-26T14:55:28.254Z,53.40
2022-09-26T14:58:15.440Z,52.80
2022-09-26T15:00:46.478Z,52.24
2022-09-26T15:03:16.511Z,52.55
2022-09-26T15:05:44.785Z,52.06
2022-09-26T15:08:25.378Z,51.34
2022-09-26T15:10:54.159Z,51.13
2022-09-26T15:13:23.389Z,50.95
2022-09-26T15:16:14.311Z,51.45
2022-09-26T15:18:43.571Z,51.70
2022-09-26T15:21:20.000Z,52.56
2022-09-26T15:23:51.279Z,52.60
2022-09-26T15:26:22.070Z,52.98
2022-09-26T15:28:51.177Z,53.11
2022-09-26T15:31:39.502Z,53.09
2022-09-26T15:34:19.259Z,52.30
2022-09-26T15:36:51.064Z,52.34
2022-09-26T15:39:39.826Z,52.68
2022-09-26T15:42:37.698Z,52.75
2022-09-26T15:45:28.764Z,52.71
2022-09-26T15:48:14.090Z,52.77
2022-09-26T15:50:45.024Z,53.17
2022-09-26T15:53:11.868Z,52.63
2022-09-26T15:55:51.731Z,53.87
2022-09-26T15:58:25.059Z,53.95
2022-09-26T16:00:53.162Z,53.99
2022-09-26T16:03:44.818Z,53.84
2022-09-26T16:06:36.433Z,54.16
2022-09-26T16:09:12.573Z,54.24
2022-09-26T16:11:50.173Z,54.74
2022-09-26T16:14:25.708Z,55.03
2022-09-26T16:17:03.859Z,54.79
2022-09-26T16:19:35.018Z,54.99
2022-09-26T16:22:45.830Z,56.13
2022-09-26T16:25:15.401Z,56.03
2022-09-26T16:27:42.865Z,56.43
2022-09-26T16:30:27.890Z,56.36
2022-09-26T16:33:03.938Z,56.66
2022-09-26T16:35:33.536Z,56.55
2022-09-26T16:38:03.378Z,56.58
2022-09-26T16:40:31.899Z,56.67
2022-09-26T16:43:18.994Z,56.88
2022-09-26T16:45:51.351Z,56.78
2022-09-26T16:48:36.460Z,57.28
2022-09-26T16:51:21.423Z,57.60
2022-09-26T16:53:53.460Z,57.54
2022-09-26T16:56:23.679Z,57.60
2022-09-26T16:58:56.643Z,57.56
2022-09-26T17:01:42.155Z,57.75
2022-09-26T17:04:17.940Z,57.72
2022-09-26T17:06:46.104Z,57.99
2022-09-26T17:09:24.606Z,58.62
2022-09-26T17:11:53.302Z,58.76
2022-09-26T17:14:23.461Z,59.00
2022-09-26T17:16:55.174Z,58.80
2022-09-26T17:19:23.907Z,58.87
2022-09-26T17:21:51.447Z,58.81
2022-09-26T17:24:24.925Z,59.04
2022-09-26T17:26:56.330Z,59.25
2022-09-26T17:29:35.499Z,59.44
2022-09-26T17:32:08.847Z,59.48
2022-09-26T17:34:36.789Z,59.65
2022-09-26T17:37:04.020Z,60.05
2022-09-26T17:39:31.071Z,59.92
2022-09-26T17:41:59.305Z,60.19
2022-09-26T17:44:26.054Z,60.51
2022-09-26T17:46:56.359Z,60.86
2022-09-26T17:49:35.848Z,60.90
2022-09-26T17:52:04.411Z,61.09
2022-09-26T17:54:42.648Z,61.75
2022-09-26T17:57:12.913Z,62.11
2022-09-26T17:59:42.155Z,62.23
2022-09-26T18:02:22.569Z,62.65
2022-09-26T18:04:53.366Z,62.91
2022-09-26T18:07:22.093Z,63.00
2022-09-26T18:09:51.304Z,62.42
2022-09-26T18:12:25.498Z,62.61
2022-09-26T18:14:52.483Z,62.93
2022-09-26T18:17:19.338Z,63.15
2022-09-26T18:19:46.975Z,63.31
2022-09-26T18:22:19.079Z,63.16
2022-09-26T18:24:48.839Z,63.21
2022-09-26T18:27:17.835Z,63.45
2022-09-26T18:29:47.885Z,63.42
2022-09-26T18:32:31.786Z,63.12
2022-09-26T18:34:59.937Z,63.20
2022-09-26T18:37:26.784Z,63.24
2022-09-26T18:39:55.673Z,63.14
2022-09-26T18:42:24.598Z,63.34
2022-09-26T18:45:00.681Z,63.38
2022-09-26T18:47:27.353Z,62.95
2022-09-26T18:49:54.015Z,63.43
2022-09-26T18:52:21.779Z,63.54
2022-09-26T18:55:08.355Z,63.30
2022-09-26T18:57:53.570Z,63.67
2022-09-26T19:00:20.225Z,63.80
2022-09-26T19:02:49.369Z,63.63
2022-09-26T19:05:16.730Z,63.69
2022-09-26T19:07:44.962Z,63.83
2022-09-26T19:10:17.345Z,63.72
2022-09-26T19:12:44.260Z,63.67
2022-09-26T19:15:15.457Z,63.74
2022-09-26T19:17:42.247Z,63.34
2022-09-26T19:20:09.775Z,63.45
2022-09-26T19:22:36.402Z,63.72
2022-09-26T19:25:03.210Z,63.73
2022-09-26T19:27:46.321Z,63.79
2022-09-26T19:30:16.957Z,64.06
2022-09-26T19:32:48.252Z,64.26
2022-09-26T19:35:30.404Z,64.50
2022-09-26T19:37:58.413Z,64.14
2022-09-26T19:40:25.795Z,64.13
2022-09-26T19:42:52.673Z,63.92
2022-09-26T19:45:20.079Z,63.88
2022-09-26T19:47:50.093Z,64.01
2022-09-26T19:50:19.891Z,64.11
2022-09-26T19:52:47.668Z,64.19
2022-09-26T19:55:26.507Z,64.49
2022-09-26T19:57:54.424Z,64.40
2022-09-26T20:00:21.257Z,64.38
2022-09-26T20:02:51.529Z,64.55
2022-09-26T20:05:24.073Z,64.35
2022-09-26T20:07:51.462Z,64.54
2022-09-26T20:10:25.352Z,64.77
2022-09-26T20:12:52.305Z,64.64
2022-09-26T20:15:20.454Z,64.53
2022-09-26T20:17:47.697Z,64.83
2022-09-26T20:20:23.350Z,64.92
2022-09-26T20:22:51.531Z,64.71
2022-09-26T20:25:30.376Z,64.95
2022-09-26T20:27:57.858Z,65.29
2022-09-26T20:30:43.770Z,65.34
2022-09-26T20:33:11.391Z,65.18
2022-09-26T20:35:43.410Z,65.61
2022-09-26T20:38:31.446Z,65.85
2022-09-26T20:41:10.668Z,65.96
2022-09-26T20:43:39.704Z,65.96
2022-09-26T20:46:09.543Z,66.25
2022-09-26T20:48:37.729Z,66.09
2022-09-26T20:51:06.102Z,66.10
2022-09-26T20:53:32.751Z,66.33
2022-09-26T20:55:59.361Z,66.46
2022-09-26T20:58:26.034Z,66.72
2022-09-26T21:00:53.464Z,66.66
2022-09-26T21:03:25.679Z,66.74
2022-09-26T21:05:52.542Z,67.19
2022-09-26T21:08:26.582Z,68.00
2022-09-26T21:10:54.250Z,68.02
2022-09-26T21:13:20.879Z,68.63
2022-09-26T21:15:47.601Z,69.07
2022-09-26T21:18:32.641Z,69.60
2022-09-26T21:21:04.485Z,69.17
2022-09-26T21:23:47.578Z,69.43
2022-09-26T21:26:24.720Z,69.87
2022-09-26T21:28:53.957Z,69.78
2022-09-26T21:31:22.685Z,69.97
2022-09-26T21:33:50.183Z,70.07
2022-09-26T21:36:18.182Z,70.06
2022-09-26T21:38:45.351Z,69.80
2022-09-26T21:41:12.576Z,69.76
2022-09-26T21:43:44.582Z,69.96
2022-09-26T21:46:11.380Z,69.71
2022-09-26T21:48:40.504Z,69.76
2022-09-26T21:51:08.494Z,69.71
2022-09-26T21:53:53.276Z,69.70
2022-09-26T21:56:25.997Z,69.37
2022-09-26T21:58:53.055Z,69.11
2022-09-26T22:01:20.573Z,69.21
2022-09-26T22:03:47.282Z,69.05
2022-09-26T22:06:14.014Z,69.24
2022-09-26T22:08:40.926Z,69.12
2022-09-26T22:11:10.500Z,69.29
2022-09-26T22:13:38.366Z,69.19
2022-09-26T22:16:10.773Z,69.31
2022-09-26T22:18:43.815Z,69.34
2022-09-26T22:21:11.376Z,69.34
2022-09-26T22:23:38.717Z,69.27
2022-09-26T22:26:06.059Z,69.26
2022-09-26T22:28:35.417Z,69.45
2022-09-26T22:31:05.466Z,69.64
2022-09-26T22:33:33.314Z,69.37
2022-09-26T22:36:00.300Z,69.38
2022-09-26T22:38:27.038Z,69.67
2022-09-26T22:41:03.264Z,69.65
2022-09-26T22:43:31.293Z,69.60
2022-09-26T22:46:12.795Z,69.72
2022-09-26T22:48:41.999Z,69.70
2022-09-26T22:51:09.822Z,69.60
2022-09-26T22:53:38.108Z,69.59
2022-09-26T22:56:06.643Z,69.52
2022-09-26T22:58:37.002Z,69.63
2022-09-26T23:01:06.519Z,69.56
2022-09-26T23:03:36.082Z,69.75
2022-09-26T23:06:03.943Z,69.76
2022-09-26T23:08:32.311Z,69.85
2022-09-26T23:10:59.165Z,70.00
2022-09-26T23:13:30.008Z,69.94
2022-09-26T23:16:05.502Z,69.91
2022-09-26T23:18:34.817Z,69.65
2022-09-26T23:21:06.965Z,69.55
2022-09-26T23:23:33.784Z,69.48
2022-09-26T23:26:00.768Z,69.33
2022-09-26T23:28:27.676Z,69.17
2022-09-26T23:30:54.629Z,69.33
2022-09-26T23:33:21.466Z,69.13
2022-09-26T23:35:57.116Z,68.63
2022-09-26T23:38:27.414Z,68.42
2022-09-26T23:40:55.106Z,68.62
2022-09-26T23:43:22.012Z,68.59
2022-09-26T23:45:49.485Z,68.55
2022-09-26T23:48:16.342Z,68.47
2022-09-26T23:50:45.308Z,68.51
2022-09-26T23:53:13.055Z,68.40
2022-09-26T23:55:44.484Z,68.42
2022-09-26T23:58:11.777Z,68.42
